sensor_id;sensor_type;location;lat;lon;timestamp;P1;durP1;ratioP1;P2;durP2;ratioP2
20859;SDS011;10590;48.154;11.514;2023-12-04T00:00:37;22.03;;;10.60;;
20859;SDS011;10590;48.154;11.514;2023-12-04T00:05:59;18.93;;;11.33;;
20859;SDS011;10590;48.154;11.514;2023-12-04T00:11:23;17.50;;;11.37;;
20859;SDS011;10590;48.154;11.514;2023-12-04T00:16:46;15.23;;;10.63;;
20859;SDS011;10590;48.154;11.514;2023-12-04T00:22:08;14.27;;;9.70;;
20859;SDS011;10590;48.154;11.514;2023-12-04T00:27:31;16.30;;;10.17;;
20859;SDS011;10590;48.154;11.514;2023-12-04T00:32:53;18.63;;;9.87;;
20859;SDS011;10590;48.154;11.514;2023-12-04T00:38:15;14.43;;;9.67;;
20859;SDS011;10590;48.154;11.514;2023-12-04T00:43:38;15.23;;;10.27;;
20859;SDS011;10590;48.154;11.514;2023-12-04T00:48:59;12.67;;;9.27;;
20859;SDS011;10590;48.154;11.514;2023-12-04T00:54:21;16.40;;;9.97;;
20859;SDS011;10590;48.154;11.514;2023-12-04T00:59:44;18.23;;;9.10;;
20859;SDS011;10590;48.154;11.514;2023-12-04T01:05:06;11.47;;;8.03;;
20859;SDS011;10590;48.154;11.514;2023-12-04T01:10:28;12.90;;;8.33;;
20859;SDS011;10590;48.154;11.514;2023-12-04T01:15:51;11.47;;;8.07;;
20859;SDS011;10590;48.154;11.514;2023-12-04T01:21:13;13.33;;;8.67;;
20859;SDS011;10590;48.154;11.514;2023-12-04T01:26:34;15.97;;;9.20;;
20859;SDS011;10590;48.154;11.514;2023-12-04T01:31:57;9.57;;;7.70;;
20859;SDS011;10590;48.154;11.514;2023-12-04T01:37:19;10.23;;;6.90;;
20859;SDS011;10590;48.154;11.514;2023-12-04T01:42:42;7.87;;;6.77;;
20859;SDS011;10590;48.154;11.514;2023-12-04T01:48:05;8.40;;;6.83;;
20859;SDS011;10590;48.154;11.514;2023-12-04T01:53:29;15.67;;;6.40;;
20859;SDS011;10590;48.154;11.514;2023-12-04T01:58:51;12.97;;;7.40;;
20859;SDS011;10590;48.154;11.514;2023-12-04T02:04:14;10.63;;;6.20;;
20859;SDS011;10590;48.154;11.514;2023-12-04T02:09:36;7.03;;;6.30;;
20859;SDS011;10590;48.154;11.514;2023-12-04T02:14:58;7.03;;;5.53;;
20859;SDS011;10590;48.154;11.514;2023-12-04T02:20:24;6.80;;;5.97;;
20859;SDS011;10590;48.154;11.514;2023-12-04T02:25:53;5.33;;;4.87;;
20859;SDS011;10590;48.154;11.514;2023-12-04T02:31:21;8.83;;;6.13;;
20859;SDS011;10590;48.154;11.514;2023-12-04T02:36:45;6.23;;;5.70;;
20859;SDS011;10590;48.154;11.514;2023-12-04T02:42:09;7.03;;;5.20;;
20859;SDS011;10590;48.154;11.514;2023-12-04T02:47:33;6.93;;;5.80;;
20859;SDS011;10590;48.154;11.514;2023-12-04T02:52:55;7.83;;;6.00;;
20859;SDS011;10590;48.154;11.514;2023-12-04T02:58:19;8.50;;;5.97;;
20859;SDS011;10590;48.154;11.514;2023-12-04T03:03:41;11.57;;;7.30;;
20859;SDS011;10590;48.154;11.514;2023-12-04T03:09:03;8.30;;;5.67;;
20859;SDS011;10590;48.154;11.514;2023-12-04T03:14:26;5.97;;;5.47;;
20859;SDS011;10590;48.154;11.514;2023-12-04T03:19:48;6.67;;;5.97;;
20859;SDS011;10590;48.154;11.514;2023-12-04T03:25:09;10.60;;;8.17;;
20859;SDS011;10590;48.154;11.514;2023-12-04T03:30:33;9.73;;;7.50;;
20859;SDS011;10590;48.154;11.514;2023-12-04T03:35:55;9.37;;;8.40;;
20859;SDS011;10590;48.154;11.514;2023-12-04T03:41:16;11.07;;;8.27;;
20859;SDS011;10590;48.154;11.514;2023-12-04T03:46:39;13.20;;;9.30;;
20859;SDS011;10590;48.154;11.514;2023-12-04T03:52:01;17.30;;;9.27;;
20859;SDS011;10590;48.154;11.514;2023-12-04T03:57:23;14.70;;;10.17;;
20859;SDS011;10590;48.154;11.514;2023-12-04T04:02:46;14.13;;;8.60;;
20859;SDS011;10590;48.154;11.514;2023-12-04T04:08:07;11.00;;;9.00;;
20859;SDS011;10590;48.154;11.514;2023-12-04T04:13:29;13.07;;;9.13;;
20859;SDS011;10590;48.154;11.514;2023-12-04T04:18:52;15.33;;;9.03;;
20859;SDS011;10590;48.154;11.514;2023-12-04T04:24:14;15.70;;;8.70;;
20859;SDS011;10590;48.154;11.514;2023-12-04T04:29:35;13.93;;;9.23;;
20859;SDS011;10590;48.154;11.514;2023-12-04T04:34:58;12.57;;;9.07;;
20859;SDS011;10590;48.154;11.514;2023-12-04T04:40:20;14.57;;;9.10;;
20859;SDS011;10590;48.154;11.514;2023-12-04T04:45:42;15.43;;;10.53;;
20859;SDS011;10590;48.154;11.514;2023-12-04T04:51:05;11.77;;;8.90;;
20859;SDS011;10590;48.154;11.514;2023-12-04T04:56:27;15.13;;;9.23;;
20859;SDS011;10590;48.154;11.514;2023-12-04T05:01:50;16.90;;;9.47;;
20859;SDS011;10590;48.154;11.514;2023-12-04T05:07:13;15.20;;;8.57;;
20859;SDS011;10590;48.154;11.514;2023-12-04T05:12:35;14.73;;;8.83;;
20859;SDS011;10590;48.154;11.514;2023-12-04T05:17:57;10.03;;;8.00;;
20859;SDS011;10590;48.154;11.514;2023-12-04T05:23:20;10.87;;;8.23;;
20859;SDS011;10590;48.154;11.514;2023-12-04T05:28:42;10.67;;;6.97;;
20859;SDS011;10590;48.154;11.514;2023-12-04T05:34:04;12.30;;;8.17;;
20859;SDS011;10590;48.154;11.514;2023-12-04T05:39:28;10.17;;;8.77;;
20859;SDS011;10590;48.154;11.514;2023-12-04T05:44:50;11.70;;;7.90;;
20859;SDS011;10590;48.154;11.514;2023-12-04T05:50:15;11.10;;;7.50;;
20859;SDS011;10590;48.154;11.514;2023-12-04T05:55:38;9.77;;;7.57;;
20859;SDS011;10590;48.154;11.514;2023-12-04T06:01:00;12.13;;;7.50;;
20859;SDS011;10590;48.154;11.514;2023-12-04T06:06:22;9.40;;;7.60;;
20859;SDS011;10590;48.154;11.514;2023-12-04T06:11:46;12.37;;;7.83;;
20859;SDS011;10590;48.154;11.514;2023-12-04T06:17:35;18.97;;;8.00;;
20859;SDS011;10590;48.154;11.514;2023-12-04T06:22:57;7.90;;;6.17;;
20859;SDS011;10590;48.154;11.514;2023-12-04T06:28:22;11.10;;;7.27;;
20859;SDS011;10590;48.154;11.514;2023-12-04T06:33:44;7.87;;;7.07;;
20859;SDS011;10590;48.154;11.514;2023-12-04T06:39:07;12.17;;;8.07;;
20859;SDS011;10590;48.154;11.514;2023-12-04T06:44:34;15.90;;;9.70;;
20859;SDS011;10590;48.154;11.514;2023-12-04T06:49:56;16.60;;;9.30;;
20859;SDS011;10590;48.154;11.514;2023-12-04T06:55:17;16.33;;;10.90;;
20859;SDS011;10590;48.154;11.514;2023-12-04T07:00:40;19.93;;;11.80;;
20859;SDS011;10590;48.154;11.514;2023-12-04T07:06:02;17.90;;;10.87;;
20859;SDS011;10590;48.154;11.514;2023-12-04T07:11:24;19.53;;;10.50;;
20859;SDS011;10590;48.154;11.514;2023-12-04T07:16:47;17.83;;;11.03;;
20859;SDS011;10590;48.154;11.514;2023-12-04T07:22:09;21.87;;;11.77;;
20859;SDS011;10590;48.154;11.514;2023-12-04T07:27:31;18.83;;;12.80;;
20859;SDS011;10590;48.154;11.514;2023-12-04T07:32:54;18.30;;;11.40;;
20859;SDS011;10590;48.154;11.514;2023-12-04T07:38:15;20.10;;;12.47;;
20859;SDS011;10590;48.154;11.514;2023-12-04T07:43:37;17.30;;;12.40;;
20859;SDS011;10590;48.154;11.514;2023-12-04T07:49:00;17.80;;;12.10;;
20859;SDS011;10590;48.154;11.514;2023-12-04T07:54:22;18.63;;;12.77;;
20859;SDS011;10590;48.154;11.514;2023-12-04T07:59:46;22.13;;;12.60;;
20859;SDS011;10590;48.154;11.514;2023-12-04T08:05:09;24.97;;;12.23;;
20859;SDS011;10590;48.154;11.514;2023-12-04T08:10:30;20.00;;;13.87;;
20859;SDS011;10590;48.154;11.514;2023-12-04T08:15:52;24.07;;;14.07;;
20859;SDS011;10590;48.154;11.514;2023-12-04T08:21:16;22.63;;;12.13;;
20859;SDS011;10590;48.154;11.514;2023-12-04T08:26:37;21.30;;;14.13;;
20859;SDS011;10590;48.154;11.514;2023-12-04T08:31:59;24.53;;;12.90;;
20859;SDS011;10590;48.154;11.514;2023-12-04T08:37:22;21.73;;;13.17;;
20859;SDS011;10590;48.154;11.514;2023-12-04T08:42:43;26.10;;;14.07;;
20859;SDS011;10590;48.154;11.514;2023-12-04T08:48:05;23.97;;;14.83;;
20859;SDS011;10590;48.154;11.514;2023-12-04T08:53:28;23.97;;;15.33;;
20859;SDS011;10590;48.154;11.514;2023-12-04T08:58:50;31.60;;;15.53;;
20859;SDS011;10590;48.154;11.514;2023-12-04T09:04:12;20.20;;;13.60;;
20859;SDS011;10590;48.154;11.514;2023-12-04T09:09:36;30.70;;;15.63;;
20859;SDS011;10590;48.154;11.514;2023-12-04T09:14:57;32.00;;;16.77;;
20859;SDS011;10590;48.154;11.514;2023-12-04T09:20:19;26.13;;;16.17;;
20859;SDS011;10590;48.154;11.514;2023-12-04T09:25:42;33.60;;;16.60;;
20859;SDS011;10590;48.154;11.514;2023-12-04T09:31:04;28.03;;;15.87;;
20859;SDS011;10590;48.154;11.514;2023-12-04T09:36:26;26.10;;;15.00;;
20859;SDS011;10590;48.154;11.514;2023-12-04T09:41:49;26.57;;;15.77;;
20859;SDS011;10590;48.154;11.514;2023-12-04T09:47:12;25.37;;;16.20;;
20859;SDS011;10590;48.154;11.514;2023-12-04T09:52:34;22.90;;;14.23;;
20859;SDS011;10590;48.154;11.514;2023-12-04T09:57:57;23.37;;;14.90;;
20859;SDS011;10590;48.154;11.514;2023-12-04T10:03:20;21.87;;;15.57;;
20859;SDS011;10590;48.154;11.514;2023-12-04T10:08:42;25.67;;;15.53;;
20859;SDS011;10590;48.154;11.514;2023-12-04T10:14:06;21.53;;;14.30;;
20859;SDS011;10590;48.154;11.514;2023-12-04T10:19:35;23.43;;;14.07;;
20859;SDS011;10590;48.154;11.514;2023-12-04T10:24:57;25.53;;;14.33;;
20859;SDS011;10590;48.154;11.514;2023-12-04T10:30:23;19.93;;;13.93;;
20859;SDS011;10590;48.154;11.514;2023-12-04T10:35:46;19.90;;;13.70;;
20859;SDS011;10590;48.154;11.514;2023-12-04T10:41:11;25.83;;;14.13;;
20859;SDS011;10590;48.154;11.514;2023-12-04T10:46:34;23.73;;;14.00;;
20859;SDS011;10590;48.154;11.514;2023-12-04T10:51:58;25.53;;;15.17;;
20859;SDS011;10590;48.154;11.514;2023-12-04T10:57:22;21.47;;;14.50;;
20859;SDS011;10590;48.154;11.514;2023-12-04T11:02:49;23.87;;;14.00;;
20859;SDS011;10590;48.154;11.514;2023-12-04T11:08:14;26.90;;;14.57;;
20859;SDS011;10590;48.154;11.514;2023-12-04T11:13:39;25.60;;;15.83;;
20859;SDS011;10590;48.154;11.514;2023-12-04T11:19:04;20.80;;;14.50;;
20859;SDS011;10590;48.154;11.514;2023-12-04T11:24:32;25.97;;;14.20;;
20859;SDS011;10590;48.154;11.514;2023-12-04T11:29:54;16.00;;;11.43;;
20859;SDS011;10590;48.154;11.514;2023-12-04T11:35:17;16.40;;;10.07;;
20859;SDS011;10590;48.154;11.514;2023-12-04T11:40:40;19.17;;;11.63;;
20859;SDS011;10590;48.154;11.514;2023-12-04T11:46:09;23.43;;;11.07;;
20859;SDS011;10590;48.154;11.514;2023-12-04T11:51:49;22.00;;;13.23;;
20859;SDS011;10590;48.154;11.514;2023-12-04T11:57:21;22.67;;;13.83;;
20859;SDS011;10590;48.154;11.514;2023-12-04T12:02:46;38.60;;;14.10;;
20859;SDS011;10590;48.154;11.514;2023-12-04T12:08:11;30.23;;;14.60;;
20859;SDS011;10590;48.154;11.514;2023-12-04T12:13:33;21.50;;;14.37;;
20859;SDS011;10590;48.154;11.514;2023-12-04T12:18:55;16.00;;;12.37;;
20859;SDS011;10590;48.154;11.514;2023-12-04T12:24:18;24.57;;;13.80;;
20859;SDS011;10590;48.154;11.514;2023-12-04T12:29:40;18.93;;;13.43;;
20859;SDS011;10590;48.154;11.514;2023-12-04T12:35:01;21.93;;;14.47;;
20859;SDS011;10590;48.154;11.514;2023-12-04T12:40:25;23.23;;;14.37;;
20859;SDS011;10590;48.154;11.514;2023-12-04T12:45:49;25.00;;;13.27;;
20859;SDS011;10590;48.154;11.514;2023-12-04T12:51:10;17.40;;;12.83;;
20859;SDS011;10590;48.154;11.514;2023-12-04T12:56:35;20.73;;;13.20;;
20859;SDS011;10590;48.154;11.514;2023-12-04T13:01:57;20.50;;;13.50;;
20859;SDS011;10590;48.154;11.514;2023-12-04T13:07:20;24.13;;;14.80;;
20859;SDS011;10590;48.154;11.514;2023-12-04T13:12:43;23.13;;;12.53;;
20859;SDS011;10590;48.154;11.514;2023-12-04T13:18:04;27.43;;;13.87;;
20859;SDS011;10590;48.154;11.514;2023-12-04T13:23:26;26.97;;;13.80;;
20859;SDS011;10590;48.154;11.514;2023-12-04T13:28:49;19.43;;;12.60;;
20859;SDS011;10590;48.154;11.514;2023-12-04T13:34:11;39.03;;;14.67;;
20859;SDS011;10590;48.154;11.514;2023-12-04T13:39:32;22.50;;;14.67;;
20859;SDS011;10590;48.154;11.514;2023-12-04T13:45:09;26.57;;;14.70;;
20859;SDS011;10590;48.154;11.514;2023-12-04T13:50:30;27.30;;;15.03;;
20859;SDS011;10590;48.154;11.514;2023-12-04T13:55:52;25.90;;;15.33;;
20859;SDS011;10590;48.154;11.514;2023-12-04T14:01:33;31.07;;;16.73;;
20859;SDS011;10590;48.154;11.514;2023-12-04T14:07:02;24.03;;;15.33;;
20859;SDS011;10590;48.154;11.514;2023-12-04T14:12:24;25.40;;;16.33;;
20859;SDS011;10590;48.154;11.514;2023-12-04T14:17:47;30.67;;;16.20;;
20859;SDS011;10590;48.154;11.514;2023-12-04T14:23:09;28.40;;;16.00;;
20859;SDS011;10590;48.154;11.514;2023-12-04T14:28:31;28.43;;;16.77;;
20859;SDS011;10590;48.154;11.514;2023-12-04T14:33:54;25.60;;;16.07;;
20859;SDS011;10590;48.154;11.514;2023-12-04T14:39:15;27.20;;;17.67;;
20859;SDS011;10590;48.154;11.514;2023-12-04T14:44:38;27.33;;;18.20;;
20859;SDS011;10590;48.154;11.514;2023-12-04T14:50:01;26.20;;;17.40;;
20859;SDS011;10590;48.154;11.514;2023-12-04T14:55:24;32.73;;;18.23;;
20859;SDS011;10590;48.154;11.514;2023-12-04T15:01:03;32.40;;;20.53;;
20859;SDS011;10590;48.154;11.514;2023-12-04T15:07:08;30.90;;;18.97;;
20859;SDS011;10590;48.154;11.514;2023-12-04T15:12:46;44.17;;;20.23;;
20859;SDS011;10590;48.154;11.514;2023-12-04T15:18:21;43.87;;;25.63;;
20859;SDS011;10590;48.154;11.514;2023-12-04T15:23:58;32.77;;;20.00;;
20859;SDS011;10590;48.154;11.514;2023-12-04T15:29:19;35.20;;;21.10;;
20859;SDS011;10590;48.154;11.514;2023-12-04T15:34:41;41.30;;;20.50;;
20859;SDS011;10590;48.154;11.514;2023-12-04T15:40:05;43.67;;;23.63;;
20859;SDS011;10590;48.154;11.514;2023-12-04T15:45:29;38.47;;;19.93;;
20859;SDS011;10590;48.154;11.514;2023-12-04T15:50:50;28.53;;;17.83;;
20859;SDS011;10590;48.154;11.514;2023-12-04T15:56:14;27.50;;;18.57;;
20859;SDS011;10590;48.154;11.514;2023-12-04T16:01:36;29.83;;;17.47;;
20859;SDS011;10590;48.154;11.514;2023-12-04T16:06:58;27.30;;;19.23;;
20859;SDS011;10590;48.154;11.514;2023-12-04T16:12:21;37.73;;;18.13;;
20859;SDS011;10590;48.154;11.514;2023-12-04T16:17:42;28.03;;;17.50;;
20859;SDS011;10590;48.154;11.514;2023-12-04T16:23:04;23.27;;;14.93;;
20859;SDS011;10590;48.154;11.514;2023-12-04T16:28:28;41.97;;;17.07;;
20859;SDS011;10590;48.154;11.514;2023-12-04T16:33:49;24.17;;;14.90;;
20859;SDS011;10590;48.154;11.514;2023-12-04T16:39:11;30.83;;;16.07;;
20859;SDS011;10590;48.154;11.514;2023-12-04T16:44:37;34.57;;;15.70;;
20859;SDS011;10590;48.154;11.514;2023-12-04T16:49:59;25.90;;;16.40;;
20859;SDS011;10590;48.154;11.514;2023-12-04T16:55:20;27.77;;;16.47;;
20859;SDS011;10590;48.154;11.514;2023-12-04T17:00:43;23.70;;;15.53;;
20859;SDS011;10590;48.154;11.514;2023-12-04T17:06:05;29.43;;;17.10;;
20859;SDS011;10590;48.154;11.514;2023-12-04T17:11:27;29.07;;;17.03;;
20859;SDS011;10590;48.154;11.514;2023-12-04T17:16:50;32.43;;;17.57;;
20859;SDS011;10590;48.154;11.514;2023-12-04T17:22:11;24.57;;;15.57;;
20859;SDS011;10590;48.154;11.514;2023-12-04T17:27:33;26.80;;;16.17;;
20859;SDS011;10590;48.154;11.514;2023-12-04T17:32:56;26.97;;;14.90;;
20859;SDS011;10590;48.154;11.514;2023-12-04T17:38:18;25.43;;;14.63;;
20859;SDS011;10590;48.154;11.514;2023-12-04T17:43:45;33.90;;;14.03;;
20859;SDS011;10590;48.154;11.514;2023-12-04T17:49:08;37.37;;;15.73;;
20859;SDS011;10590;48.154;11.514;2023-12-04T17:54:33;19.90;;;14.73;;
20859;SDS011;10590;48.154;11.514;2023-12-04T17:59:57;24.77;;;14.53;;
20859;SDS011;10590;48.154;11.514;2023-12-04T18:05:20;23.17;;;13.67;;
20859;SDS011;10590;48.154;11.514;2023-12-04T18:10:43;19.20;;;13.73;;
20859;SDS011;10590;48.154;11.514;2023-12-04T18:16:05;21.47;;;14.30;;
20859;SDS011;10590;48.154;11.514;2023-12-04T18:21:29;20.50;;;13.10;;
20859;SDS011;10590;48.154;11.514;2023-12-04T18:26:51;19.87;;;13.60;;
20859;SDS011;10590;48.154;11.514;2023-12-04T18:32:13;21.83;;;14.27;;
20859;SDS011;10590;48.154;11.514;2023-12-04T18:37:38;24.67;;;14.40;;
20859;SDS011;10590;48.154;11.514;2023-12-04T18:43:05;22.67;;;14.07;;
20859;SDS011;10590;48.154;11.514;2023-12-04T18:48:27;27.57;;;13.77;;
20859;SDS011;10590;48.154;11.514;2023-12-04T18:53:54;18.03;;;12.53;;
20859;SDS011;10590;48.154;11.514;2023-12-04T18:59:15;25.60;;;15.43;;
20859;SDS011;10590;48.154;11.514;2023-12-04T19:04:37;27.63;;;13.63;;
20859;SDS011;10590;48.154;11.514;2023-12-04T19:10:00;33.23;;;16.13;;
20859;SDS011;10590;48.154;11.514;2023-12-04T19:15:23;27.97;;;18.37;;
20859;SDS011;10590;48.154;11.514;2023-12-04T19:20:45;35.33;;;20.23;;
20859;SDS011;10590;48.154;11.514;2023-12-04T19:26:09;34.77;;;18.93;;
20859;SDS011;10590;48.154;11.514;2023-12-04T19:31:30;39.27;;;20.40;;
20859;SDS011;10590;48.154;11.514;2023-12-04T19:36:52;34.77;;;19.97;;
20859;SDS011;10590;48.154;11.514;2023-12-04T19:42:15;31.57;;;18.37;;
20859;SDS011;10590;48.154;11.514;2023-12-04T19:47:37;26.57;;;17.53;;
20859;SDS011;10590;48.154;11.514;2023-12-04T19:52:59;29.37;;;20.10;;
20859;SDS011;10590;48.154;11.514;2023-12-04T19:58:22;47.07;;;23.97;;
20859;SDS011;10590;48.154;11.514;2023-12-04T20:03:43;39.37;;;22.00;;
20859;SDS011;10590;48.154;11.514;2023-12-04T20:09:05;37.97;;;22.73;;
20859;SDS011;10590;48.154;11.514;2023-12-04T20:14:28;33.27;;;22.13;;
20859;SDS011;10590;48.154;11.514;2023-12-04T20:19:50;43.70;;;24.13;;
20859;SDS011;10590;48.154;11.514;2023-12-04T20:25:12;49.00;;;25.60;;
20859;SDS011;10590;48.154;11.514;2023-12-04T20:30:35;39.87;;;21.77;;
20859;SDS011;10590;48.154;11.514;2023-12-04T20:35:57;35.60;;;21.83;;
20859;SDS011;10590;48.154;11.514;2023-12-04T20:41:22;32.13;;;21.57;;
20859;SDS011;10590;48.154;11.514;2023-12-04T20:46:47;39.83;;;23.20;;
20859;SDS011;10590;48.154;11.514;2023-12-04T20:52:12;40.07;;;22.53;;
20859;SDS011;10590;48.154;11.514;2023-12-04T20:57:35;41.00;;;22.30;;
20859;SDS011;10590;48.154;11.514;2023-12-04T21:03:01;36.53;;;20.67;;
20859;SDS011;10590;48.154;11.514;2023-12-04T21:08:24;37.57;;;22.03;;
20859;SDS011;10590;48.154;11.514;2023-12-04T21:13:46;43.07;;;20.73;;
20859;SDS011;10590;48.154;11.514;2023-12-04T21:19:09;36.63;;;19.87;;
20859;SDS011;10590;48.154;11.514;2023-12-04T21:24:30;34.50;;;22.43;;
20859;SDS011;10590;48.154;11.514;2023-12-04T21:29:55;34.50;;;20.23;;
20859;SDS011;10590;48.154;11.514;2023-12-04T21:35:18;29.00;;;18.00;;
20859;SDS011;10590;48.154;11.514;2023-12-04T21:40:40;27.40;;;17.77;;
20859;SDS011;10590;48.154;11.514;2023-12-04T21:46:04;35.87;;;19.33;;
20859;SDS011;10590;48.154;11.514;2023-12-04T21:51:27;33.63;;;18.17;;
20859;SDS011;10590;48.154;11.514;2023-12-04T21:56:50;33.60;;;18.93;;
20859;SDS011;10590;48.154;11.514;2023-12-04T22:02:12;28.43;;;18.23;;
20859;SDS011;10590;48.154;11.514;2023-12-04T22:07:35;29.67;;;17.90;;
20859;SDS011;10590;48.154;11.514;2023-12-04T22:12:56;30.97;;;17.83;;
20859;SDS011;10590;48.154;11.514;2023-12-04T22:18:18;87.33;;;41.37;;
20859;SDS011;10590;48.154;11.514;2023-12-04T22:23:41;27.33;;;16.43;;
20859;SDS011;10590;48.154;11.514;2023-12-04T22:29:02;28.90;;;16.37;;
20859;SDS011;10590;48.154;11.514;2023-12-04T22:34:24;26.17;;;16.30;;
20859;SDS011;10590;48.154;11.514;2023-12-04T22:39:49;24.03;;;15.53;;
20859;SDS011;10590;48.154;11.514;2023-12-04T22:45:11;21.77;;;13.37;;
20859;SDS011;10590;48.154;11.514;2023-12-04T22:50:33;124.80;;;52.70;;
20859;SDS011;10590;48.154;11.514;2023-12-04T22:55:56;14.13;;;10.40;;
20859;SDS011;10590;48.154;11.514;2023-12-04T23:01:18;14.00;;;10.97;;
20859;SDS011;10590;48.154;11.514;2023-12-04T23:06:40;16.13;;;11.23;;
20859;SDS011;10590;48.154;11.514;2023-12-04T23:12:03;18.97;;;10.90;;
20859;SDS011;10590;48.154;11.514;2023-12-04T23:17:27;12.37;;;9.03;;
20859;SDS011;10590;48.154;11.514;2023-12-04T23:22:49;9.57;;;8.53;;
20859;SDS011;10590;48.154;11.514;2023-12-04T23:28:13;11.93;;;8.87;;
20859;SDS011;10590;48.154;11.514;2023-12-04T23:33:34;9.57;;;8.07;;
20859;SDS011;10590;48.154;11.514;2023-12-04T23:38:56;10.67;;;7.60;;
20859;SDS011;10590;48.154;11.514;2023-12-04T23:44:19;11.63;;;7.93;;
20859;SDS011;10590;48.154;11.514;2023-12-04T23:49:41;10.63;;;8.03;;
20859;SDS011;10590;48.154;11.514;2023-12-04T23:55:03;10.53;;;7.20;;
